createdAt,value
2018-08-16T00:01:24.707Z,25.50
2018-08-16T00:06:28.011Z,25.50
2018-08-16T00:11:31.219Z,25.50
2018-08-16T00:16:34.813Z,25.50
2018-08-16T00:21:38.264Z,25.50
2018-08-16T00:26:41.544Z,25.40
2018-08-16T00:31:44.753Z,25.40
2018-08-16T00:36:48.071Z,25.40
2018-08-16T00:41:51.317Z,25.40
2018-08-16T00:46:54.713Z,25.40
2018-08-16T00:51:57.945Z,25.40
2018-08-16T00:57:01.109Z,25.30
2018-08-16T01:02:04.338Z,25.30
2018-08-16T01:07:08.108Z,25.30
2018-08-16T01:12:11.339Z,25.30
2018-08-16T01:17:14.552Z,25.30
2018-08-16T01:22:17.741Z,25.30
2018-08-16T01:27:20.913Z,25.20
2018-08-16T01:32:24.165Z,25.20
2018-08-16T01:37:27.575Z,25.20
2018-08-16T01:42:31.254Z,25.20
2018-08-16T01:47:34.489Z,25.20
2018-08-16T01:52:38.023Z,25.20
2018-08-16T01:57:41.304Z,25.20
2018-08-16T02:02:44.474Z,25.20
2018-08-16T02:07:47.683Z,25.10
2018-08-16T02:12:51.119Z,25.10
2018-08-16T02:17:54.535Z,25.20
2018-08-16T02:22:57.744Z,25.10
2018-08-16T02:28:01.176Z,25.10
2018-08-16T02:33:04.434Z,25.10
2018-08-16T02:38:07.700Z,25.10
2018-08-16T02:43:11.019Z,25.10
2018-08-16T02:48:14.169Z,25.10
2018-08-16T02:53:17.341Z,25.00
2018-08-16T02:58:20.516Z,25.00
2018-08-16T03:03:23.723Z,25.00
2018-08-16T03:08:26.952Z,25.00
2018-08-16T03:13:30.929Z,25.00
2018-08-16T03:18:34.137Z,25.00
2018-08-16T03:23:37.545Z,25.00
2018-08-16T03:28:40.863Z,25.00
2018-08-16T03:33:44.102Z,24.90
2018-08-16T03:38:47.590Z,24.90
2018-08-16T03:43:50.821Z,24.90
2018-08-16T03:48:54.038Z,24.90
2018-08-16T03:53:57.504Z,24.90
2018-08-16T03:59:01.429Z,24.90
2018-08-16T04:04:04.646Z,24.90
2018-08-16T04:09:08.674Z,24.80
2018-08-16T04:14:11.810Z,24.80
2018-08-16T04:19:15.084Z,24.80
2018-08-16T04:24:18.926Z,24.80
2018-08-16T04:29:22.365Z,24.80
2018-08-16T04:34:25.573Z,24.80
2018-08-16T04:39:28.790Z,24.80
2018-08-16T04:44:32.769Z,24.80
2018-08-16T04:49:37.031Z,24.80
2018-08-16T04:54:40.306Z,24.80
2018-08-16T04:59:43.759Z,24.80
2018-08-16T05:04:47.004Z,24.80
2018-08-16T05:09:50.936Z,24.80
2018-08-16T05:14:54.768Z,24.80
2018-08-16T05:19:58.033Z,24.80
2018-08-16T05:25:01.270Z,24.80
2018-08-16T05:30:06.851Z,24.80
2018-08-16T05:35:10.190Z,24.80
2018-08-16T05:40:13.744Z,24.80
2018-08-16T05:45:17.084Z,24.80
2018-08-16T05:50:20.316Z,24.80
2018-08-16T05:55:23.474Z,24.80
2018-08-16T06:00:27.794Z,24.80
2018-08-16T06:05:31.270Z,24.80
2018-08-16T06:10:34.689Z,24.90
2018-08-16T06:15:38.022Z,24.90
2018-08-16T06:20:41.528Z,24.90
2018-08-16T06:25:44.740Z,24.90
2018-08-16T06:30:48.340Z,25.00
2018-08-16T06:35:51.643Z,25.00
2018-08-16T06:40:55.285Z,25.00
2018-08-16T06:45:58.685Z,25.10
2018-08-16T06:51:02.045Z,25.10
2018-08-16T06:56:05.314Z,25.20
2018-08-16T07:01:08.754Z,25.20
2018-08-16T07:06:12.233Z,25.20
2018-08-16T07:11:15.732Z,25.30
2018-08-16T07:16:19.012Z,25.30
2018-08-16T07:21:23.119Z,25.40
2018-08-16T07:26:26.777Z,25.40
2018-08-16T07:31:29.981Z,25.40
2018-08-16T07:36:33.502Z,25.50
2018-08-16T07:41:37.262Z,25.60
2018-08-16T07:46:40.787Z,25.70
2018-08-16T07:51:44.236Z,25.60
2018-08-16T07:56:48.186Z,25.60
2018-08-16T08:01:51.443Z,25.60
2018-08-16T08:06:55.421Z,25.60
2018-08-16T08:11:59.062Z,25.70
2018-08-16T08:17:02.306Z,25.70
2018-08-16T08:22:05.576Z,25.70
2018-08-16T08:27:08.765Z,25.70
2018-08-16T08:32:11.961Z,25.80
2018-08-16T08:37:26.771Z,25.80
2018-08-16T08:42:30.268Z,25.80
2018-08-16T08:48:06.301Z,25.80
2018-08-16T08:53:21.000Z,25.90
2018-08-16T08:58:35.537Z,25.90
2018-08-16T09:03:39.178Z,26.00
2018-08-16T09:08:42.471Z,26.00
2018-08-16T09:13:58.490Z,26.00
2018-08-16T09:19:02.913Z,26.00
2018-08-16T09:24:07.379Z,26.00
2018-08-16T09:30:22.163Z,26.00
2018-08-16T09:35:26.703Z,26.10
2018-08-16T09:40:30.039Z,26.10
2018-08-16T09:46:42.151Z,26.10
2018-08-16T09:51:46.773Z,26.10
2018-08-16T09:56:50.404Z,26.10
2018-08-16T10:01:53.823Z,26.10
2018-08-16T10:06:57.341Z,26.10
2018-08-16T10:12:01.924Z,26.10
2018-08-16T10:17:05.429Z,26.10
2018-08-16T10:22:08.819Z,26.10
2018-08-16T10:27:12.452Z,26.20
2018-08-16T10:32:16.267Z,26.20
2018-08-16T10:37:19.572Z,26.20
2018-08-16T10:42:23.396Z,26.20
2018-08-16T10:47:26.725Z,26.30
2018-08-16T10:52:30.004Z,26.30
2018-08-16T10:57:34.554Z,26.30
2018-08-16T11:02:38.123Z,26.30
2018-08-16T11:07:41.987Z,26.30
2018-08-16T11:12:45.404Z,26.30
2018-08-16T11:17:49.252Z,26.30
2018-08-16T11:22:54.089Z,26.40
2018-08-16T11:28:00.076Z,26.40
2018-08-16T11:33:07.189Z,26.40
2018-08-16T11:38:13.554Z,26.40
2018-08-16T11:43:16.969Z,26.40
2018-08-16T11:48:20.588Z,26.40
2018-08-16T11:53:23.910Z,26.40
2018-08-16T11:58:27.220Z,26.40
2018-08-16T12:03:30.571Z,26.40
2018-08-16T12:08:34.188Z,26.40
2018-08-16T12:13:38.556Z,26.40
2018-08-16T12:18:42.162Z,26.50
2018-08-16T12:23:45.350Z,26.40
2018-08-16T12:28:48.796Z,26.50
2018-08-16T12:33:52.443Z,26.50
2018-08-16T12:38:55.741Z,26.50
2018-08-16T12:43:59.046Z,26.50
2018-08-16T12:49:02.325Z,26.50
2018-08-16T12:54:06.229Z,26.50
2018-08-16T12:59:10.084Z,26.50
2018-08-16T13:04:13.369Z,26.70
2018-08-16T13:09:16.596Z,26.70
2018-08-16T13:14:20.176Z,26.60
2018-08-16T13:19:24.030Z,26.70
2018-08-16T13:24:27.989Z,26.70
2018-08-16T13:29:32.731Z,26.70
2018-08-16T13:34:36.085Z,26.70
2018-08-16T13:39:39.335Z,26.70
2018-08-16T13:44:42.740Z,26.70
2018-08-16T13:49:46.272Z,26.80
2018-08-16T13:54:49.712Z,26.90
2018-08-16T13:59:53.421Z,26.90
2018-08-16T14:04:57.069Z,26.90
2018-08-16T14:10:00.754Z,26.80
2018-08-16T14:15:04.348Z,27.00
2018-08-16T14:20:08.396Z,27.00
2018-08-16T14:25:11.859Z,27.10
2018-08-16T14:30:16.351Z,26.90
2018-08-16T14:35:20.560Z,27.10
2018-08-16T14:40:24.311Z,26.90
2018-08-16T14:45:27.625Z,26.80
2018-08-16T14:50:31.247Z,26.80
2018-08-16T14:55:35.021Z,27.00
2018-08-16T15:00:38.332Z,26.90
2018-08-16T15:05:41.925Z,26.80
2018-08-16T15:10:45.454Z,26.80
2018-08-16T15:15:48.911Z,26.80
2018-08-16T15:20:52.363Z,26.90
2018-08-16T15:25:55.639Z,26.90
2018-08-16T15:30:59.469Z,26.80
2018-08-16T15:36:02.764Z,26.80
2018-08-16T15:41:06.507Z,26.80
2018-08-16T15:46:10.366Z,26.90
2018-08-16T15:51:14.608Z,26.90
2018-08-16T15:56:18.457Z,27.00
2018-08-16T16:01:22.082Z,27.00
2018-08-16T16:06:25.548Z,27.10
2018-08-16T16:11:29.428Z,27.00
2018-08-16T16:16:35.096Z,27.10
2018-08-16T16:21:39.759Z,27.10
2018-08-16T16:26:43.049Z,27.10
2018-08-16T16:31:46.611Z,27.00
2018-08-16T16:36:50.710Z,27.00
2018-08-16T16:41:54.548Z,26.90
2018-08-16T16:46:59.776Z,27.00
2018-08-16T16:52:03.954Z,27.00
2018-08-16T16:57:08.184Z,27.00
2018-08-16T17:02:11.756Z,27.10
2018-08-16T17:07:15.132Z,27.10
2018-08-16T17:12:19.129Z,27.10
2018-08-16T17:17:22.543Z,27.10
2018-08-16T17:22:26.467Z,27.20
2018-08-16T17:27:29.907Z,27.20
2018-08-16T17:32:33.965Z,27.20
2018-08-16T17:37:38.087Z,27.10
2018-08-16T17:42:41.630Z,27.20
2018-08-16T17:47:45.185Z,27.20
2018-08-16T17:52:48.434Z,27.20
2018-08-16T17:57:52.223Z,27.20
2018-08-16T18:02:55.531Z,27.20
2018-08-16T18:07:59.025Z,27.20
2018-08-16T18:13:02.965Z,27.30
2018-08-16T18:18:06.515Z,27.30
2018-08-16T18:23:09.814Z,27.20
2018-08-16T18:28:13.212Z,27.20
2018-08-16T18:33:16.719Z,27.30
2018-08-16T18:38:20.135Z,27.20
2018-08-16T18:43:23.509Z,27.20
2018-08-16T18:48:27.072Z,27.20
2018-08-16T18:53:30.421Z,27.20
2018-08-16T18:58:33.864Z,27.20
2018-08-16T19:03:37.212Z,27.20
2018-08-16T19:08:40.707Z,27.20
2018-08-16T19:13:44.049Z,27.20
2018-08-16T19:18:47.387Z,27.20
2018-08-16T19:23:50.633Z,27.20
2018-08-16T19:28:54.142Z,27.20
2018-08-16T19:33:57.797Z,27.10
2018-08-16T19:39:01.214Z,27.10
2018-08-16T19:44:05.457Z,27.10
2018-08-16T19:49:09.081Z,27.10
2018-08-16T19:54:13.140Z,27.10
2018-08-16T19:59:16.467Z,27.10
2018-08-16T20:04:19.719Z,27.10
2018-08-16T20:09:22.979Z,27.10
2018-08-16T20:14:26.343Z,27.10
2018-08-16T20:19:30.168Z,27.10
2018-08-16T20:24:33.922Z,27.10
2018-08-16T20:29:37.425Z,27.10
2018-08-16T20:34:41.166Z,27.00
2018-08-16T20:39:44.815Z,27.10
2018-08-16T20:44:48.789Z,27.00
2018-08-16T20:49:52.416Z,27.00
2018-08-16T20:54:56.233Z,27.00
2018-08-16T20:59:59.653Z,26.90
2018-08-16T21:05:03.663Z,26.90
2018-08-16T21:10:08.671Z,26.90
2018-08-16T21:15:13.170Z,26.90
2018-08-16T21:20:16.540Z,26.80
2018-08-16T21:25:21.078Z,26.80
2018-08-16T21:30:25.866Z,26.80
2018-08-16T21:35:29.242Z,26.70
2018-08-16T21:40:32.763Z,26.70
2018-08-16T21:45:36.032Z,26.70
2018-08-16T21:50:39.277Z,26.70
2018-08-16T21:55:42.518Z,26.70
2018-08-16T22:00:48.693Z,26.70
2018-08-16T22:05:57.410Z,26.70
2018-08-16T22:11:01.104Z,26.70
2018-08-16T22:16:04.619Z,26.70
2018-08-16T22:21:08.454Z,26.70
2018-08-16T22:26:12.092Z,26.80
2018-08-16T22:31:15.565Z,26.70
2018-08-16T22:36:18.896Z,26.70
2018-08-16T22:41:22.318Z,26.70
2018-08-16T22:46:25.645Z,26.70
2018-08-16T22:51:29.121Z,26.70
2018-08-16T22:56:32.418Z,26.70
2018-08-16T23:01:35.684Z,26.70
2018-08-16T23:06:39.019Z,26.60
2018-08-16T23:11:42.473Z,26.60
2018-08-16T23:16:45.828Z,26.60
2018-08-16T23:21:49.047Z,26.60
2018-08-16T23:26:52.276Z,26.60
2018-08-16T23:31:55.494Z,26.60
2018-08-16T23:36:58.812Z,26.60
2018-08-16T23:42:02.045Z,26.60
2018-08-16T23:47:05.256Z,26.50
2018-08-16T23:52:08.940Z,26.50
2018-08-16T23:57:12.145Z,26.50
